Weather at Şanlı Karakolu Border Post Helipad

Public forecast

Using degrees Celsius for public forecast. Weather courtesy of forecast.io.

Closest aviation weather report (METAR) to Şanlı Karakolu Border Post Helipad

Closest report is Hatay Airport, 24.7 nm (45.8 km) N.

2024/07/16 18:50 (retrieved 28 minutes ago)

LTDA 161850Z 22017KT CAVOK 29/21 Q1004 NOSIG

Closest aviation forecast (TAF) to Şanlı Karakolu Border Post Helipad

Closest forecast is Aleppo International Airport, 47.9 nm (88.7 km) ENE.

2024/07/16 18:12 (retrieved 1 hour ago)

TAF TAF OSAP 161600Z 1618/1718 27015KT CAVOK BECMG 1622/1624 30010KT CAVOK